Darlington, New Jersey
Current Conditions -  °F | °C
As of 4:51 PM on Friday 31 Oct 2014 (Local Time) from KTEB Reporting Station
Overcast Overcast  
Wind Chill: 13°   Ceiling: 5000
Heat Index: 13°   Visibility: 10mi
Dew Point:   Wind: 7mph
Humidity: 47%   Direction: 50°NE
Pressure: 29.89"   Gusts: NA
Location:  41.0594°N, 74.1457°W
Report Text: KTEB 312051Z 05006KT 10SM OVC050 13/02 A2989 RMK AO2 SLP122 T01280017 55011
Loading
Personal Weather Stations






























Interactive Weather Map
Tropical Storm Tracking
New forecast layout! Learn more

10-Day Weather Forecast

Advertisements
Track Severe Weather on mobile